createdAt,value
2018-02-18T00:00:36.850Z,8.40
2018-02-18T00:03:05.206Z,7.40
2018-02-18T00:05:33.585Z,6.93
2018-02-18T00:08:01.314Z,8.93
2018-02-18T00:10:28.940Z,10.13
2018-02-18T00:12:56.513Z,6.30
2018-02-18T00:15:26.137Z,6.93
2018-02-18T00:17:53.740Z,9.90
2018-02-18T00:20:21.302Z,8.83
2018-02-18T00:22:48.963Z,9.60
2018-02-18T00:25:17.346Z,6.53
2018-02-18T00:27:44.983Z,5.83
2018-02-18T00:30:12.751Z,7.00
2018-02-18T00:32:40.387Z,3.73
2018-02-18T00:35:07.991Z,8.10
2018-02-18T00:37:35.600Z,4.37
2018-02-18T00:40:03.296Z,5.10
2018-02-18T00:42:30.918Z,5.93
2018-02-18T00:44:59.288Z,5.07
2018-02-18T00:47:26.934Z,5.80
2018-02-18T00:49:55.322Z,6.93
2018-02-18T00:52:22.958Z,6.57
2018-02-18T00:54:50.553Z,6.37
2018-02-18T00:57:18.146Z,4.63
2018-02-18T00:59:45.770Z,4.90
2018-02-18T01:02:13.354Z,6.80
2018-02-18T01:04:40.998Z,9.77
2018-02-18T01:07:08.588Z,3.63
2018-02-18T01:09:36.937Z,4.17
2018-02-18T01:12:04.683Z,7.53
2018-02-18T01:14:32.317Z,3.20
2018-02-18T01:17:00.019Z,5.33
2018-02-18T01:19:27.669Z,6.07
2018-02-18T01:21:55.296Z,3.63
2018-02-18T01:24:22.906Z,5.90
2018-02-18T01:26:50.567Z,4.20
2018-02-18T01:29:18.175Z,5.93
2018-02-18T01:31:46.589Z,5.53
2018-02-18T01:34:14.201Z,4.20
2018-02-18T01:36:41.804Z,7.40
2018-02-18T01:39:09.391Z,4.17
2018-02-18T01:41:37.076Z,3.03
2018-02-18T01:44:04.675Z,5.60
2018-02-18T01:46:32.573Z,3.97
2018-02-18T01:49:00.303Z,7.67
2018-02-18T01:51:27.925Z,8.17
2018-02-18T01:53:55.529Z,4.80
2018-02-18T01:56:23.124Z,7.33
2018-02-18T01:58:51.498Z,5.33
2018-02-18T02:01:19.135Z,10.17
2018-02-18T02:03:46.857Z,6.27
2018-02-18T02:06:14.484Z,6.67
2018-02-18T02:08:42.106Z,5.57
2018-02-18T02:11:09.657Z,4.73
2018-02-18T02:13:37.249Z,4.13
2018-02-18T02:16:04.854Z,5.90
2018-02-18T02:18:32.447Z,5.17
2018-02-18T02:21:00.094Z,7.87
2018-02-18T02:23:27.725Z,3.70
2018-02-18T02:25:55.359Z,4.30
2018-02-18T02:28:22.928Z,3.00
2018-02-18T02:30:51.384Z,5.60
2018-02-18T02:33:18.990Z,4.80
2018-02-18T02:35:48.085Z,4.67
2018-02-18T02:38:15.698Z,5.87
2018-02-18T02:40:43.306Z,5.40
2018-02-18T02:43:10.916Z,5.17
2018-02-18T02:45:38.511Z,3.13
2018-02-18T02:48:06.156Z,5.37
2018-02-18T02:50:33.726Z,6.83
2018-02-18T02:53:01.322Z,5.30
2018-02-18T02:55:28.934Z,4.60
2018-02-18T02:57:56.562Z,3.73
2018-02-18T03:00:24.913Z,3.33
2018-02-18T03:02:52.514Z,3.97
2018-02-18T03:05:20.854Z,5.47
2018-02-18T03:07:48.444Z,6.20
2018-02-18T03:10:16.012Z,4.13
2018-02-18T03:12:43.623Z,5.40
2018-02-18T03:15:12.138Z,5.93
2018-02-18T03:17:39.717Z,4.83
2018-02-18T03:20:07.317Z,3.07
2018-02-18T03:22:35.091Z,8.00
2018-02-18T03:25:02.649Z,6.70
2018-02-18T03:27:30.228Z,6.77
2018-02-18T03:29:57.816Z,3.63
2018-02-18T03:32:25.404Z,3.70
2018-02-18T03:34:53.014Z,6.23
2018-02-18T03:37:20.624Z,3.50
2018-02-18T03:39:48.235Z,2.57
2018-02-18T03:42:16.105Z,4.00
2018-02-18T03:44:43.790Z,3.67
2018-02-18T03:47:12.143Z,4.33
2018-02-18T03:49:39.863Z,6.17
2018-02-18T03:52:08.258Z,3.60
2018-02-18T03:54:35.824Z,3.33
2018-02-18T03:57:04.022Z,5.93
2018-02-18T03:59:31.588Z,6.10
2018-02-18T04:01:59.197Z,4.63
2018-02-18T04:04:26.795Z,3.20
2018-02-18T04:06:55.143Z,5.40
2018-02-18T04:09:22.726Z,3.27
2018-02-18T04:11:50.321Z,5.47
2018-02-18T04:14:17.917Z,4.50
2018-02-18T04:16:45.511Z,5.43
2018-02-18T04:19:13.089Z,4.37
2018-02-18T04:21:41.437Z,4.30
2018-02-18T04:24:09.028Z,3.93
2018-02-18T04:26:37.358Z,4.30
2018-02-18T04:29:04.939Z,6.33
2018-02-18T04:31:32.527Z,11.27
2018-02-18T04:34:00.113Z,5.10
2018-02-18T04:36:28.446Z,5.40
2018-02-18T04:38:56.044Z,10.50
2018-02-18T04:41:24.424Z,7.67
2018-02-18T04:43:51.996Z,8.33
2018-02-18T04:46:20.318Z,4.87
2018-02-18T04:48:47.964Z,4.07
2018-02-18T04:51:15.514Z,5.90
2018-02-18T04:53:43.096Z,5.00
2018-02-18T04:56:10.698Z,9.03
2018-02-18T04:58:40.635Z,10.27
2018-02-18T05:01:08.999Z,6.90
2018-02-18T05:03:36.612Z,10.03
2018-02-18T05:06:04.225Z,9.70
2018-02-18T05:08:31.818Z,8.33
2018-02-18T05:11:00.176Z,8.60
2018-02-18T05:13:27.730Z,8.00
2018-02-18T05:15:55.362Z,7.23
2018-02-18T05:18:22.947Z,10.30
2018-02-18T05:20:51.329Z,9.23
2018-02-18T05:23:18.894Z,6.50
2018-02-18T05:25:46.468Z,6.40
2018-02-18T05:28:14.076Z,8.57
2018-02-18T05:30:41.687Z,8.43
2018-02-18T05:33:09.275Z,7.60
2018-02-18T05:35:36.851Z,7.57
2018-02-18T05:38:05.217Z,6.43
2018-02-18T05:40:33.686Z,7.90
2018-02-18T05:43:01.291Z,6.07
2018-02-18T05:45:28.847Z,6.27
2018-02-18T05:47:56.462Z,8.27
2018-02-18T05:50:24.027Z,7.20
2018-02-18T05:52:51.630Z,9.27
2018-02-18T05:55:19.193Z,9.60
2018-02-18T05:57:47.542Z,6.07
2018-02-18T06:00:15.098Z,3.97
2018-02-18T06:02:42.693Z,3.53
2018-02-18T06:05:10.267Z,2.43
2018-02-18T06:07:37.957Z,5.90
2018-02-18T06:10:05.560Z,6.00
2018-02-18T06:12:33.179Z,4.37
2018-02-18T06:15:00.801Z,6.00
2018-02-18T06:17:28.410Z,8.10
2018-02-18T06:19:56.024Z,5.80
2018-02-18T06:22:24.392Z,3.30
2018-02-18T06:24:52.000Z,5.80
2018-02-18T06:27:19.650Z,7.87
2018-02-18T06:29:48.010Z,7.53
2018-02-18T06:32:15.588Z,10.83
2018-02-18T06:34:43.946Z,6.70
2018-02-18T06:37:12.294Z,7.17
2018-02-18T06:39:39.904Z,7.37
2018-02-18T06:42:07.470Z,11.17
2018-02-18T06:44:36.630Z,6.43
2018-02-18T06:47:05.122Z,7.10
2018-02-18T06:49:32.759Z,7.60
2018-02-18T06:52:00.367Z,7.37
2018-02-18T06:54:27.982Z,10.13
2018-02-18T06:56:55.574Z,9.43
2018-02-18T06:59:23.168Z,6.37
2018-02-18T07:01:51.523Z,8.53
2018-02-18T07:04:19.146Z,6.13
2018-02-18T07:06:46.731Z,8.07
2018-02-18T07:09:14.318Z,5.47
2018-02-18T07:11:41.903Z,6.97
2018-02-18T07:14:10.287Z,9.03
2018-02-18T07:16:37.892Z,8.23
2018-02-18T07:19:06.284Z,6.93
2018-02-18T07:21:33.886Z,6.63
2018-02-18T07:24:02.303Z,8.47
2018-02-18T07:26:29.873Z,5.83
2018-02-18T07:28:57.448Z,6.77
2018-02-18T07:31:25.067Z,5.33
2018-02-18T07:33:52.664Z,5.40
2018-02-18T07:36:20.268Z,4.43
2018-02-18T07:38:47.867Z,5.60
2018-02-18T07:41:15.472Z,7.10
2018-02-18T07:43:43.045Z,4.43
2018-02-18T07:46:10.620Z,4.67
2018-02-18T07:48:38.242Z,3.83
2018-02-18T07:51:05.826Z,4.40
2018-02-18T07:53:34.180Z,2.50
2018-02-18T07:56:01.991Z,2.73
2018-02-18T07:58:29.610Z,3.87
2018-02-18T08:00:57.217Z,4.87
2018-02-18T08:03:24.829Z,5.43
2018-02-18T08:05:52.423Z,5.93
2018-02-18T08:08:20.032Z,4.60
2018-02-18T08:10:47.643Z,6.20
2018-02-18T08:13:15.264Z,6.03
2018-02-18T08:15:43.593Z,6.23
2018-02-18T08:18:11.179Z,5.13
2018-02-18T08:20:38.779Z,5.00
2018-02-18T08:23:06.405Z,8.23
2018-02-18T08:25:34.181Z,9.97
2018-02-18T08:28:03.136Z,6.83
2018-02-18T08:30:30.776Z,8.63
2018-02-18T08:32:59.074Z,7.57
2018-02-18T08:35:26.750Z,7.30
2018-02-18T08:37:54.500Z,6.80
2018-02-18T08:40:22.248Z,4.10
2018-02-18T08:42:49.896Z,8.40
2018-02-18T08:45:17.782Z,4.03
2018-02-18T08:47:45.402Z,2.33
2018-02-18T08:50:13.808Z,2.57
2018-02-18T08:52:42.265Z,3.43
2018-02-18T08:55:09.918Z,3.00
2018-02-18T08:57:37.538Z,3.03
2018-02-18T09:00:05.892Z,2.23
2018-02-18T09:02:33.496Z,1.77
2018-02-18T09:05:01.058Z,2.63
2018-02-18T09:07:28.651Z,1.90
2018-02-18T09:09:56.244Z,1.27
2018-02-18T09:12:23.871Z,1.70
2018-02-18T09:14:51.480Z,2.30
2018-02-18T09:17:19.104Z,1.27
2018-02-18T09:19:46.742Z,1.30
2018-02-18T09:22:14.358Z,1.13
2018-02-18T09:24:41.981Z,1.30
2018-02-18T09:27:09.549Z,1.57
2018-02-18T09:29:37.239Z,3.50
2018-02-18T09:32:04.924Z,1.93
2018-02-18T09:34:34.397Z,4.30
2018-02-18T09:37:02.001Z,1.80
2018-02-18T09:39:30.454Z,1.10
2018-02-18T09:41:58.073Z,1.83
2018-02-18T09:44:25.674Z,1.30
2018-02-18T09:46:53.264Z,3.33
2018-02-18T09:49:22.681Z,3.43
2018-02-18T09:51:50.312Z,2.57
2018-02-18T09:54:17.862Z,1.13
2018-02-18T09:56:45.461Z,2.70
2018-02-18T09:59:13.257Z,0.97
2018-02-18T10:01:40.712Z,2.40
2018-02-18T10:04:08.289Z,1.10
2018-02-18T10:06:35.903Z,1.07
2018-02-18T10:09:03.620Z,0.97
2018-02-18T10:11:31.206Z,1.60
2018-02-18T10:13:58.780Z,3.63
2018-02-18T10:16:26.372Z,0.70
2018-02-18T10:18:53.974Z,1.13
2018-02-18T10:21:21.575Z,0.97
2018-02-18T10:23:49.139Z,0.83
2018-02-18T10:26:16.735Z,0.83
2018-02-18T10:28:44.316Z,0.50
2018-02-18T10:31:11.921Z,1.17
2018-02-18T10:33:40.275Z,0.77
2018-02-18T10:36:07.864Z,1.13
2018-02-18T10:38:35.434Z,0.67
2018-02-18T10:41:03.045Z,0.77
2018-02-18T10:43:30.641Z,1.13
2018-02-18T10:45:58.262Z,1.03
2018-02-18T10:48:25.861Z,0.90
2018-02-18T10:50:53.500Z,2.30
2018-02-18T10:53:21.127Z,0.80
2018-02-18T10:55:48.788Z,0.80
2018-02-18T10:58:16.363Z,1.93
2018-02-18T11:00:43.963Z,1.90
2018-02-18T11:03:11.618Z,2.00
2018-02-18T11:05:39.218Z,1.33
2018-02-18T11:08:06.807Z,0.87
2018-02-18T11:10:34.671Z,2.83
2018-02-18T11:13:02.256Z,1.40
2018-02-18T11:15:30.666Z,1.60
2018-02-18T11:17:58.332Z,1.87
2018-02-18T11:20:25.979Z,2.47
2018-02-18T11:22:53.589Z,2.70
2018-02-18T11:25:21.291Z,0.80
2018-02-18T11:27:51.115Z,0.83
2018-02-18T11:30:19.433Z,3.37
2018-02-18T11:32:47.033Z,1.50
2018-02-18T11:35:14.618Z,1.00
2018-02-18T11:37:42.186Z,4.43
2018-02-18T11:40:10.636Z,1.40
2018-02-18T11:42:38.230Z,2.20
2018-02-18T11:45:05.814Z,2.63
2018-02-18T11:47:33.414Z,2.40
2018-02-18T11:50:01.013Z,1.40
2018-02-18T11:52:28.587Z,2.13
2018-02-18T11:54:56.946Z,3.20
2018-02-18T11:57:24.514Z,1.97
2018-02-18T11:59:52.876Z,2.30
2018-02-18T12:02:21.972Z,1.70
2018-02-18T12:04:49.533Z,1.40
2018-02-18T12:07:17.134Z,2.53
2018-02-18T12:09:44.746Z,3.00
2018-02-18T12:12:12.314Z,2.23
2018-02-18T12:14:40.007Z,1.20
2018-02-18T12:17:08.356Z,1.77
2018-02-18T12:19:35.924Z,1.60
2018-02-18T12:22:03.545Z,1.53
2018-02-18T12:24:31.149Z,1.43
2018-02-18T12:26:58.991Z,2.10
2018-02-18T12:29:26.594Z,2.30
2018-02-18T12:31:54.196Z,2.27
2018-02-18T12:34:21.756Z,1.70
2018-02-18T12:36:50.096Z,4.07
2018-02-18T12:39:17.699Z,1.93
2018-02-18T12:41:46.052Z,4.27
2018-02-18T12:44:13.638Z,1.97
2018-02-18T12:46:41.953Z,2.50
2018-02-18T12:49:09.556Z,3.27
2018-02-18T12:51:37.138Z,2.17
2018-02-18T12:54:04.724Z,2.60
2018-02-18T12:56:32.294Z,2.10
2018-02-18T12:58:59.881Z,1.90
2018-02-18T13:01:27.459Z,2.20
2018-02-18T13:03:55.038Z,1.60
2018-02-18T13:06:22.639Z,2.77
2018-02-18T13:08:50.233Z,2.73
2018-02-18T13:11:17.842Z,2.57
2018-02-18T13:13:45.417Z,2.13
2018-02-18T13:16:13.024Z,1.83
2018-02-18T13:18:40.675Z,2.00
2018-02-18T13:21:08.281Z,2.67
2018-02-18T13:23:35.977Z,1.97
2018-02-18T13:26:03.598Z,2.00
2018-02-18T13:28:31.211Z,1.97
2018-02-18T13:30:58.850Z,2.87
2018-02-18T13:33:27.197Z,3.40
2018-02-18T13:35:54.812Z,3.67
2018-02-18T13:38:22.431Z,2.87
2018-02-18T13:40:50.788Z,2.43
2018-02-18T13:43:18.383Z,2.23
2018-02-18T13:45:46.285Z,3.00
2018-02-18T13:48:14.669Z,2.80
2018-02-18T13:50:42.230Z,2.93
2018-02-18T13:53:09.817Z,2.00
2018-02-18T13:55:37.432Z,4.20
2018-02-18T13:58:05.030Z,3.90
2018-02-18T14:00:32.612Z,3.07
2018-02-18T14:03:00.282Z,2.33
2018-02-18T14:05:27.903Z,3.43
2018-02-18T14:07:55.558Z,2.23
2018-02-18T14:10:23.953Z,5.53
2018-02-18T14:12:52.331Z,3.60
2018-02-18T14:15:19.973Z,3.53
2018-02-18T14:17:47.572Z,3.50
2018-02-18T14:20:15.149Z,4.87
2018-02-18T14:22:43.170Z,2.30
2018-02-18T14:25:10.759Z,4.57
2018-02-18T14:27:39.169Z,4.10
2018-02-18T14:30:06.737Z,3.73
2018-02-18T14:32:34.311Z,3.23
2018-02-18T14:35:01.916Z,4.33
2018-02-18T14:37:29.495Z,4.27
2018-02-18T14:39:57.111Z,3.33
2018-02-18T14:42:36.558Z,2.53
2018-02-18T14:45:16.369Z,3.33
2018-02-18T14:47:55.804Z,2.20
2018-02-18T14:53:53.451Z,1.87
2018-02-18T14:56:47.803Z,1.80
2018-02-18T14:59:15.478Z,1.93
2018-02-18T15:01:43.051Z,1.60
2018-02-18T15:04:10.670Z,2.63
2018-02-18T15:06:38.479Z,2.70
2018-02-18T15:09:06.081Z,4.40
2018-02-18T15:11:33.688Z,2.30
2018-02-18T15:14:01.259Z,2.03
2018-02-18T15:16:28.814Z,2.73
2018-02-18T15:18:56.442Z,5.07
2018-02-18T15:21:24.020Z,6.17
2018-02-18T15:23:51.637Z,5.93
2018-02-18T15:26:19.209Z,4.20
2018-02-18T15:28:47.556Z,4.27
2018-02-18T15:31:15.158Z,3.13
2018-02-18T15:33:42.742Z,3.73
2018-02-18T15:36:11.059Z,4.23
2018-02-18T15:38:38.643Z,2.90
2018-02-18T15:41:06.268Z,1.87
2018-02-18T15:43:33.865Z,2.03
2018-02-18T15:46:01.500Z,3.33
2018-02-18T15:48:29.216Z,3.60
2018-02-18T15:50:56.806Z,3.33
2018-02-18T15:53:24.395Z,4.47
2018-02-18T15:55:52.027Z,3.97
2018-02-18T15:58:19.724Z,2.93
2018-02-18T16:00:47.392Z,7.40
2018-02-18T16:03:15.027Z,3.13
2018-02-18T16:05:42.590Z,4.93
2018-02-18T16:08:10.213Z,3.73
2018-02-18T16:10:37.784Z,4.60
2018-02-18T16:13:05.421Z,2.90
2018-02-18T16:15:33.094Z,4.33
2018-02-18T16:18:00.701Z,3.33
2018-02-18T16:20:29.057Z,3.43
2018-02-18T16:22:56.720Z,5.70
2018-02-18T16:25:24.340Z,6.53
2018-02-18T16:27:51.930Z,2.67
2018-02-18T16:30:19.536Z,3.63
2018-02-18T16:32:48.017Z,6.00
2018-02-18T16:35:15.644Z,7.27
2018-02-18T16:37:43.276Z,3.80
2018-02-18T16:40:10.878Z,6.87
2018-02-18T16:42:38.470Z,6.77
2018-02-18T16:45:06.047Z,5.27
2018-02-18T16:47:33.649Z,6.50
2018-02-18T16:50:01.354Z,4.67
2018-02-18T16:52:29.104Z,6.10
2018-02-18T16:54:56.709Z,5.17
2018-02-18T16:57:24.307Z,4.63
2018-02-18T16:59:51.942Z,4.90
2018-02-18T17:02:19.528Z,6.43
2018-02-18T17:04:47.146Z,7.53
2018-02-18T17:07:15.466Z,5.37
2018-02-18T17:09:43.242Z,4.37
2018-02-18T17:12:10.826Z,5.03
2018-02-18T17:14:38.413Z,8.73
2018-02-18T17:17:06.768Z,5.37
2018-02-18T17:19:34.378Z,7.33
2018-02-18T17:22:01.975Z,6.53
2018-02-18T17:24:29.587Z,6.17
2018-02-18T17:26:57.204Z,5.63
2018-02-18T17:29:24.784Z,4.90
2018-02-18T17:31:53.243Z,8.57
2018-02-18T17:34:20.837Z,6.60
2018-02-18T17:36:48.432Z,4.30
2018-02-18T17:39:16.802Z,5.53
2018-02-18T17:41:44.425Z,5.77
2018-02-18T17:44:11.990Z,4.37
2018-02-18T17:46:39.584Z,3.80
2018-02-18T17:49:07.228Z,4.93
2018-02-18T17:51:34.803Z,5.03
2018-02-18T17:54:02.421Z,4.80
2018-02-18T17:56:30.031Z,3.17
2018-02-18T17:58:57.625Z,5.20
2018-02-18T18:01:25.222Z,5.03
2018-02-18T18:03:52.840Z,4.20
2018-02-18T18:06:20.413Z,5.70
2018-02-18T18:08:48.018Z,5.27
2018-02-18T18:11:15.603Z,6.33
2018-02-18T18:13:43.266Z,5.90
2018-02-18T18:16:10.854Z,7.70
2018-02-18T18:18:39.214Z,6.00
2018-02-18T18:21:06.809Z,7.27
2018-02-18T18:23:34.398Z,5.77
2018-02-18T18:26:02.021Z,4.30
2018-02-18T18:28:29.638Z,5.70
2018-02-18T18:30:57.205Z,5.23
2018-02-18T18:33:24.808Z,5.73
2018-02-18T18:35:52.375Z,8.87
2018-02-18T18:38:20.713Z,7.07
2018-02-18T18:40:48.360Z,6.33
2018-02-18T18:43:15.923Z,6.97
2018-02-18T18:45:43.549Z,7.20
2018-02-18T18:48:11.133Z,5.70
2018-02-18T18:50:38.735Z,6.10
2018-02-18T18:53:06.350Z,8.23
2018-02-18T18:55:34.095Z,7.20
2018-02-18T18:58:02.445Z,8.73
2018-02-18T19:00:30.017Z,6.63
2018-02-18T19:02:57.639Z,7.57
2018-02-18T19:05:25.251Z,14.17
2018-02-18T19:07:52.977Z,7.97
2018-02-18T19:10:20.608Z,8.87
2018-02-18T19:12:48.189Z,6.37
2018-02-18T19:15:15.792Z,9.80
2018-02-18T19:17:43.359Z,8.23
2018-02-18T19:20:10.954Z,8.50
2018-02-18T19:22:39.296Z,8.77
2018-02-18T19:25:06.902Z,9.70
2018-02-18T19:27:35.216Z,7.43
2018-02-18T19:30:02.767Z,7.30
2018-02-18T19:32:30.370Z,10.03
2018-02-18T19:34:58.010Z,7.40
2018-02-18T19:37:25.657Z,8.23
2018-02-18T19:39:53.211Z,9.30
2018-02-18T19:42:20.805Z,7.10
2018-02-18T19:44:49.052Z,8.43
2018-02-18T19:47:16.636Z,10.97
2018-02-18T19:49:44.237Z,12.63
2018-02-18T19:52:11.861Z,10.50
2018-02-18T19:54:39.503Z,10.33
2018-02-18T19:57:07.113Z,8.40
2018-02-18T19:59:34.722Z,8.80
2018-02-18T20:02:02.401Z,11.87
2018-02-18T20:04:30.020Z,9.77
2018-02-18T20:06:59.136Z,10.87
2018-02-18T20:09:26.716Z,8.93
2018-02-18T20:11:54.342Z,9.60
2018-02-18T20:14:21.940Z,8.67
2018-02-18T20:16:49.518Z,7.20
2018-02-18T20:19:17.089Z,7.40
2018-02-18T20:21:44.705Z,6.80
2018-02-18T20:24:12.308Z,6.73
2018-02-18T20:26:39.881Z,6.90
2018-02-18T20:29:07.544Z,6.23
2018-02-18T20:31:35.150Z,6.80
2018-02-18T20:34:02.731Z,7.30
2018-02-18T20:36:31.096Z,10.67
2018-02-18T20:38:58.658Z,8.40
2018-02-18T20:41:26.312Z,8.77
2018-02-18T20:43:53.893Z,11.13
2018-02-18T20:46:21.476Z,7.40
2018-02-18T20:48:50.150Z,8.27
2018-02-18T20:51:17.832Z,10.77
2018-02-18T20:53:45.442Z,7.93
2018-02-18T20:56:13.027Z,7.57
2018-02-18T20:58:41.570Z,7.10
2018-02-18T21:01:09.195Z,6.83
2018-02-18T21:03:36.798Z,7.13
2018-02-18T21:06:04.394Z,8.87
2018-02-18T21:08:32.013Z,11.30
2018-02-18T21:10:59.617Z,9.13
2018-02-18T21:13:27.213Z,11.87
2018-02-18T21:15:55.609Z,12.87
2018-02-18T21:18:23.675Z,12.30
2018-02-18T21:20:51.407Z,9.60
2018-02-18T21:23:18.969Z,12.90
2018-02-18T21:25:46.541Z,10.03
2018-02-18T21:28:14.133Z,7.97
2018-02-18T21:30:41.690Z,7.17
2018-02-18T21:33:09.307Z,9.63
2018-02-18T21:35:36.899Z,11.17
2018-02-18T21:38:08.281Z,10.03
2018-02-18T21:40:37.134Z,8.97
2018-02-18T21:43:04.701Z,7.77
2018-02-18T21:45:33.040Z,7.17
2018-02-18T21:48:01.551Z,8.43
2018-02-18T21:50:29.125Z,8.93
2018-02-18T21:52:56.741Z,7.80
2018-02-18T21:55:24.380Z,8.40
2018-02-18T21:57:51.972Z,9.80
2018-02-18T22:00:19.590Z,9.00
2018-02-18T22:02:47.960Z,7.73
2018-02-18T22:05:16.332Z,9.47
2018-02-18T22:07:43.953Z,7.07
2018-02-18T22:10:11.503Z,8.97
2018-02-18T22:12:39.111Z,7.53
2018-02-18T22:15:08.498Z,6.77
2018-02-18T22:17:37.054Z,7.33
2018-02-18T22:20:06.843Z,7.00
2018-02-18T22:22:35.444Z,6.47
2018-02-18T22:25:03.070Z,5.73
2018-02-18T22:27:30.776Z,5.30
2018-02-18T22:29:58.579Z,5.03
2018-02-18T22:32:26.717Z,4.17
2018-02-18T22:34:54.288Z,4.10
2018-02-18T22:37:22.698Z,5.80
2018-02-18T22:39:50.677Z,5.47
2018-02-18T22:42:18.297Z,6.60
2018-02-18T22:44:46.650Z,6.67
2018-02-18T22:47:14.311Z,5.50
2018-02-18T22:49:41.944Z,6.30
2018-02-18T22:52:09.535Z,4.27
2018-02-18T22:54:37.090Z,4.20
2018-02-18T22:57:05.203Z,4.17
2018-02-18T22:59:32.816Z,5.90
2018-02-18T23:02:00.501Z,4.30
2018-02-18T23:04:28.075Z,5.60
2018-02-18T23:07:12.460Z,4.90
2018-02-18T23:09:40.103Z,5.80
2018-02-18T23:12:07.705Z,4.57
2018-02-18T23:14:35.339Z,4.63
2018-02-18T23:17:04.331Z,4.53
2018-02-18T23:19:32.683Z,4.30
2018-02-18T23:22:00.320Z,4.90
2018-02-18T23:24:27.992Z,7.13
2018-02-18T23:26:55.573Z,6.23
2018-02-18T23:29:23.185Z,6.73
2018-02-18T23:31:52.294Z,6.00
2018-02-18T23:34:19.920Z,7.17
2018-02-18T23:36:47.868Z,6.23
2018-02-18T23:39:15.488Z,7.30
2018-02-18T23:41:43.211Z,5.80
2018-02-18T23:44:10.798Z,6.27
2018-02-18T23:46:39.146Z,4.83
2018-02-18T23:49:06.749Z,5.43
2018-02-18T23:51:35.094Z,6.60
2018-02-18T23:54:02.920Z,8.37
2018-02-18T23:56:31.407Z,6.77
2018-02-18T23:58:59.418Z,7.43
